sensor_id;sensor_type;location;lat;lon;timestamp;P1;durP1;ratioP1;P2;durP2;ratioP2
2041;SDS011;1026;51.460;7.252;2022-09-03T00:01:07;1.50;;;1.40;;
2041;SDS011;1026;51.460;7.252;2022-09-03T00:03:41;1.53;;;1.43;;
2041;SDS011;1026;51.460;7.252;2022-09-03T00:09:00;1.80;;;1.70;;
2041;SDS011;1026;51.460;7.252;2022-09-03T00:11:45;1.80;;;1.70;;
2041;SDS011;1026;51.460;7.252;2022-09-03T00:14:33;2.60;;;1.67;;
2041;SDS011;1026;51.460;7.252;2022-09-03T00:17:10;2.30;;;1.60;;
2041;SDS011;1026;51.460;7.252;2022-09-03T00:22:33;2.47;;;2.27;;
2041;SDS011;1026;51.460;7.252;2022-09-03T00:25:04;1.93;;;1.73;;
2041;SDS011;1026;51.460;7.252;2022-09-03T00:27:36;1.77;;;1.67;;
2041;SDS011;1026;51.460;7.252;2022-09-03T00:30:08;1.50;;;1.40;;
2041;SDS011;1026;51.460;7.252;2022-09-03T00:32:41;1.60;;;1.50;;
2041;SDS011;1026;51.460;7.252;2022-09-03T00:37:56;1.50;;;1.40;;
2041;SDS011;1026;51.460;7.252;2022-09-03T00:48:22;1.63;;;1.53;;
2041;SDS011;1026;51.460;7.252;2022-09-03T00:53:37;1.57;;;1.47;;
2041;SDS011;1026;51.460;7.252;2022-09-03T01:01:40;2.43;;;1.87;;
2041;SDS011;1026;51.460;7.252;2022-09-03T01:06:56;1.90;;;1.80;;
2041;SDS011;1026;51.460;7.252;2022-09-03T01:09:38;1.50;;;1.40;;
2041;SDS011;1026;51.460;7.252;2022-09-03T01:19:51;1.93;;;1.80;;
2041;SDS011;1026;51.460;7.252;2022-09-03T01:25:39;1.57;;;1.47;;
2041;SDS011;1026;51.460;7.252;2022-09-03T01:28:44;1.80;;;1.70;;
2041;SDS011;1026;51.460;7.252;2022-09-03T01:31:24;2.23;;;1.90;;
2041;SDS011;1026;51.460;7.252;2022-09-03T01:39:25;1.30;;;1.20;;
2041;SDS011;1026;51.460;7.252;2022-09-03T01:44:47;1.50;;;1.40;;
2041;SDS011;1026;51.460;7.252;2022-09-03T01:47:18;1.40;;;1.30;;
2041;SDS011;1026;51.460;7.252;2022-09-03T01:50:02;1.40;;;1.30;;
2041;SDS011;1026;51.460;7.252;2022-09-03T01:52:38;1.47;;;1.47;;
2041;SDS011;1026;51.460;7.252;2022-09-03T01:55:18;1.70;;;1.57;;
2041;SDS011;1026;51.460;7.252;2022-09-03T02:00:43;1.60;;;1.50;;
2041;SDS011;1026;51.460;7.252;2022-09-03T02:03:14;1.90;;;1.80;;
2041;SDS011;1026;51.460;7.252;2022-09-03T02:05:41;1.40;;;1.30;;
2041;SDS011;1026;51.460;7.252;2022-09-03T02:08:08;1.63;;;1.53;;
2041;SDS011;1026;51.460;7.252;2022-09-03T02:10:42;1.50;;;1.40;;
2041;SDS011;1026;51.460;7.252;2022-09-03T02:13:14;1.73;;;1.63;;
2041;SDS011;1026;51.460;7.252;2022-09-03T02:15:47;1.70;;;1.60;;
2041;SDS011;1026;51.460;7.252;2022-09-03T02:18:17;1.30;;;1.20;;
2041;SDS011;1026;51.460;7.252;2022-09-03T02:20:46;1.90;;;1.80;;
2041;SDS011;1026;51.460;7.252;2022-09-03T02:23:12;1.80;;;1.70;;
2041;SDS011;1026;51.460;7.252;2022-09-03T02:25:40;1.70;;;1.60;;
2041;SDS011;1026;51.460;7.252;2022-09-03T02:28:09;1.63;;;1.53;;
2041;SDS011;1026;51.460;7.252;2022-09-03T02:30:35;1.57;;;1.47;;
2041;SDS011;1026;51.460;7.252;2022-09-03T02:33:01;1.43;;;1.27;;
2041;SDS011;1026;51.460;7.252;2022-09-03T02:35:27;2.10;;;2.00;;
2041;SDS011;1026;51.460;7.252;2022-09-03T02:37:53;1.70;;;1.60;;
2041;SDS011;1026;51.460;7.252;2022-09-03T02:40:19;1.30;;;1.20;;
2041;SDS011;1026;51.460;7.252;2022-09-03T02:42:44;1.50;;;1.40;;
2041;SDS011;1026;51.460;7.252;2022-09-03T02:47:55;1.90;;;1.70;;
2041;SDS011;1026;51.460;7.252;2022-09-03T02:50:23;1.43;;;1.33;;
2041;SDS011;1026;51.460;7.252;2022-09-03T02:52:49;1.17;;;1.13;;
2041;SDS011;1026;51.460;7.252;2022-09-03T02:55:15;1.40;;;1.30;;
2041;SDS011;1026;51.460;7.252;2022-09-03T02:57:42;1.40;;;1.30;;
2041;SDS011;1026;51.460;7.252;2022-09-03T03:00:08;1.70;;;1.60;;
2041;SDS011;1026;51.460;7.252;2022-09-03T03:02:34;1.70;;;1.60;;
2041;SDS011;1026;51.460;7.252;2022-09-03T03:05:00;1.30;;;1.30;;
2041;SDS011;1026;51.460;7.252;2022-09-03T03:07:26;1.43;;;1.33;;
2041;SDS011;1026;51.460;7.252;2022-09-03T03:09:55;1.50;;;1.40;;
2041;SDS011;1026;51.460;7.252;2022-09-03T03:12:21;1.57;;;1.47;;
2041;SDS011;1026;51.460;7.252;2022-09-03T03:14:47;1.23;;;1.13;;
2041;SDS011;1026;51.460;7.252;2022-09-03T03:17:12;1.40;;;1.30;;
2041;SDS011;1026;51.460;7.252;2022-09-03T03:19:38;1.53;;;1.43;;
2041;SDS011;1026;51.460;7.252;2022-09-03T03:22:04;1.70;;;1.47;;
2041;SDS011;1026;51.460;7.252;2022-09-03T03:24:29;1.50;;;1.40;;
2041;SDS011;1026;51.460;7.252;2022-09-03T03:26:55;1.40;;;1.30;;
2041;SDS011;1026;51.460;7.252;2022-09-03T03:29:22;1.13;;;1.03;;
2041;SDS011;1026;51.460;7.252;2022-09-03T03:31:49;1.60;;;1.50;;
2041;SDS011;1026;51.460;7.252;2022-09-03T03:34:15;1.50;;;1.40;;
2041;SDS011;1026;51.460;7.252;2022-09-03T03:36:41;1.43;;;1.30;;
2041;SDS011;1026;51.460;7.252;2022-09-03T03:39:07;1.53;;;1.43;;
2041;SDS011;1026;51.460;7.252;2022-09-03T03:41:33;1.90;;;1.30;;
2041;SDS011;1026;51.460;7.252;2022-09-03T03:44:02;1.50;;;1.40;;
2041;SDS011;1026;51.460;7.252;2022-09-03T03:46:31;1.30;;;1.20;;
2041;SDS011;1026;51.460;7.252;2022-09-03T03:48:58;1.47;;;1.37;;
2041;SDS011;1026;51.460;7.252;2022-09-03T03:51:24;1.53;;;1.43;;
2041;SDS011;1026;51.460;7.252;2022-09-03T03:53:52;1.53;;;1.43;;
2041;SDS011;1026;51.460;7.252;2022-09-03T03:56:20;1.30;;;1.20;;
2041;SDS011;1026;51.460;7.252;2022-09-03T03:58:46;1.60;;;1.50;;
2041;SDS011;1026;51.460;7.252;2022-09-03T04:01:14;2.17;;;2.07;;
2041;SDS011;1026;51.460;7.252;2022-09-03T04:03:41;3.83;;;1.80;;
2041;SDS011;1026;51.460;7.252;2022-09-03T04:06:09;1.53;;;1.43;;
2041;SDS011;1026;51.460;7.252;2022-09-03T04:08:36;1.70;;;1.60;;
2041;SDS011;1026;51.460;7.252;2022-09-03T04:11:04;1.30;;;1.20;;
2041;SDS011;1026;51.460;7.252;2022-09-03T04:13:32;1.40;;;1.40;;
2041;SDS011;1026;51.460;7.252;2022-09-03T04:16:03;1.53;;;1.43;;
2041;SDS011;1026;51.460;7.252;2022-09-03T04:18:30;1.73;;;1.63;;
2041;SDS011;1026;51.460;7.252;2022-09-03T04:20:58;1.30;;;1.20;;
2041;SDS011;1026;51.460;7.252;2022-09-03T04:23:30;1.40;;;1.30;;
2041;SDS011;1026;51.460;7.252;2022-09-03T04:25:56;1.60;;;1.50;;
2041;SDS011;1026;51.460;7.252;2022-09-03T04:28:22;1.53;;;1.43;;
2041;SDS011;1026;51.460;7.252;2022-09-03T04:30:48;1.70;;;1.60;;
2041;SDS011;1026;51.460;7.252;2022-09-03T04:33:14;1.23;;;1.13;;
2041;SDS011;1026;51.460;7.252;2022-09-03T04:35:39;1.70;;;1.60;;
2041;SDS011;1026;51.460;7.252;2022-09-03T04:38:06;1.50;;;1.40;;
2041;SDS011;1026;51.460;7.252;2022-09-03T04:40:31;1.43;;;1.33;;
2041;SDS011;1026;51.460;7.252;2022-09-03T04:42:57;2.67;;;1.90;;
2041;SDS011;1026;51.460;7.252;2022-09-03T04:45:23;1.20;;;1.10;;
2041;SDS011;1026;51.460;7.252;2022-09-03T04:47:58;1.50;;;1.40;;
2041;SDS011;1026;51.460;7.252;2022-09-03T04:50:25;1.30;;;1.20;;
2041;SDS011;1026;51.460;7.252;2022-09-03T04:52:52;1.43;;;1.33;;
2041;SDS011;1026;51.460;7.252;2022-09-03T04:55:20;1.53;;;1.40;;
2041;SDS011;1026;51.460;7.252;2022-09-03T04:57:47;1.57;;;1.47;;
2041;SDS011;1026;51.460;7.252;2022-09-03T05:00:12;1.33;;;1.23;;
2041;SDS011;1026;51.460;7.252;2022-09-03T05:02:42;1.50;;;1.40;;
2041;SDS011;1026;51.460;7.252;2022-09-03T05:05:10;1.43;;;1.33;;
2041;SDS011;1026;51.460;7.252;2022-09-03T05:07:36;1.60;;;1.50;;
2041;SDS011;1026;51.460;7.252;2022-09-03T05:10:04;1.40;;;1.30;;
2041;SDS011;1026;51.460;7.252;2022-09-03T05:12:32;1.40;;;1.30;;
2041;SDS011;1026;51.460;7.252;2022-09-03T05:14:58;1.33;;;1.23;;
2041;SDS011;1026;51.460;7.252;2022-09-03T05:17:25;1.43;;;1.40;;
2041;SDS011;1026;51.460;7.252;2022-09-03T05:19:51;1.40;;;1.30;;
2041;SDS011;1026;51.460;7.252;2022-09-03T05:22:17;1.40;;;1.30;;
2041;SDS011;1026;51.460;7.252;2022-09-03T05:24:45;1.50;;;1.40;;
2041;SDS011;1026;51.460;7.252;2022-09-03T05:27:12;1.33;;;1.23;;
2041;SDS011;1026;51.460;7.252;2022-09-03T05:29:41;1.33;;;1.23;;
2041;SDS011;1026;51.460;7.252;2022-09-03T05:32:07;1.20;;;1.10;;
2041;SDS011;1026;51.460;7.252;2022-09-03T05:34:33;1.10;;;1.10;;
2041;SDS011;1026;51.460;7.252;2022-09-03T05:36:58;1.67;;;1.50;;
2041;SDS011;1026;51.460;7.252;2022-09-03T05:39:24;1.50;;;1.40;;
2041;SDS011;1026;51.460;7.252;2022-09-03T05:41:50;1.20;;;1.10;;
2041;SDS011;1026;51.460;7.252;2022-09-03T05:44:16;1.53;;;1.43;;
2041;SDS011;1026;51.460;7.252;2022-09-03T05:46:42;2.10;;;2.00;;
2041;SDS011;1026;51.460;7.252;2022-09-03T05:49:07;1.47;;;1.37;;
2041;SDS011;1026;51.460;7.252;2022-09-03T05:51:35;1.23;;;1.13;;
2041;SDS011;1026;51.460;7.252;2022-09-03T05:54:03;1.40;;;1.30;;
2041;SDS011;1026;51.460;7.252;2022-09-03T05:56:30;1.60;;;1.50;;
2041;SDS011;1026;51.460;7.252;2022-09-03T05:58:57;1.50;;;1.40;;
2041;SDS011;1026;51.460;7.252;2022-09-03T06:01:26;1.20;;;1.10;;
2041;SDS011;1026;51.460;7.252;2022-09-03T06:03:55;1.67;;;1.57;;
2041;SDS011;1026;51.460;7.252;2022-09-03T06:06:22;1.47;;;1.37;;
2041;SDS011;1026;51.460;7.252;2022-09-03T06:08:50;1.53;;;1.40;;
2041;SDS011;1026;51.460;7.252;2022-09-03T06:11:16;1.93;;;1.40;;
2041;SDS011;1026;51.460;7.252;2022-09-03T06:13:42;2.30;;;1.43;;
2041;SDS011;1026;51.460;7.252;2022-09-03T06:16:07;1.10;;;1.10;;
2041;SDS011;1026;51.460;7.252;2022-09-03T06:18:33;1.00;;;1.00;;
2041;SDS011;1026;51.460;7.252;2022-09-03T06:21:00;2.90;;;1.67;;
2041;SDS011;1026;51.460;7.252;2022-09-03T06:23:28;1.30;;;1.20;;
2041;SDS011;1026;51.460;7.252;2022-09-03T06:26:03;1.47;;;1.37;;
2041;SDS011;1026;51.460;7.252;2022-09-03T06:28:30;1.30;;;1.20;;
2041;SDS011;1026;51.460;7.252;2022-09-03T06:30:58;1.80;;;1.50;;
2041;SDS011;1026;51.460;7.252;2022-09-03T06:33:26;1.33;;;1.23;;
2041;SDS011;1026;51.460;7.252;2022-09-03T06:35:55;1.30;;;1.20;;
2041;SDS011;1026;51.460;7.252;2022-09-03T06:38:22;1.50;;;1.40;;
2041;SDS011;1026;51.460;7.252;2022-09-03T06:40:51;1.67;;;1.40;;
2041;SDS011;1026;51.460;7.252;2022-09-03T06:43:18;1.40;;;1.30;;
2041;SDS011;1026;51.460;7.252;2022-09-03T06:45:51;4.80;;;1.70;;
2041;SDS011;1026;51.460;7.252;2022-09-03T06:48:21;1.20;;;1.10;;
2041;SDS011;1026;51.460;7.252;2022-09-03T06:51:18;1.90;;;1.80;;
2041;SDS011;1026;51.460;7.252;2022-09-03T06:53:35;1.40;;;1.30;;
2041;SDS011;1026;51.460;7.252;2022-09-03T06:56:04;1.63;;;1.53;;
2041;SDS011;1026;51.460;7.252;2022-09-03T06:58:33;1.30;;;1.20;;
2041;SDS011;1026;51.460;7.252;2022-09-03T07:03:30;1.27;;;1.17;;
2041;SDS011;1026;51.460;7.252;2022-09-03T07:06:01;1.47;;;1.37;;
2041;SDS011;1026;51.460;7.252;2022-09-03T07:08:29;1.70;;;1.40;;
2041;SDS011;1026;51.460;7.252;2022-09-03T07:10:57;1.37;;;1.27;;
2041;SDS011;1026;51.460;7.252;2022-09-03T07:13:24;6.73;;;2.00;;
2041;SDS011;1026;51.460;7.252;2022-09-03T07:15:58;1.87;;;1.77;;
2041;SDS011;1026;51.460;7.252;2022-09-03T07:18:26;1.70;;;1.60;;
2041;SDS011;1026;51.460;7.252;2022-09-03T07:20:56;2.07;;;1.50;;
2041;SDS011;1026;51.460;7.252;2022-09-03T07:23:22;1.90;;;1.80;;
2041;SDS011;1026;51.460;7.252;2022-09-03T07:25:52;1.67;;;1.57;;
2041;SDS011;1026;51.460;7.252;2022-09-03T07:28:21;1.60;;;1.50;;
2041;SDS011;1026;51.460;7.252;2022-09-03T07:30:48;1.60;;;1.50;;
2041;SDS011;1026;51.460;7.252;2022-09-03T07:33:15;1.67;;;1.57;;
2041;SDS011;1026;51.460;7.252;2022-09-03T07:35:41;2.00;;;1.53;;
2041;SDS011;1026;51.460;7.252;2022-09-03T07:38:07;1.40;;;1.30;;
2041;SDS011;1026;51.460;7.252;2022-09-03T07:40:55;2.03;;;1.93;;
2041;SDS011;1026;51.460;7.252;2022-09-03T07:43:25;2.80;;;1.77;;
2041;SDS011;1026;51.460;7.252;2022-09-03T07:45:51;1.60;;;1.50;;
2041;SDS011;1026;51.460;7.252;2022-09-03T07:48:19;2.20;;;1.97;;
2041;SDS011;1026;51.460;7.252;2022-09-03T07:50:45;2.33;;;1.97;;
2041;SDS011;1026;51.460;7.252;2022-09-03T07:53:12;5.17;;;1.87;;
2041;SDS011;1026;51.460;7.252;2022-09-03T07:55:38;2.00;;;1.70;;
2041;SDS011;1026;51.460;7.252;2022-09-03T07:58:04;2.57;;;2.00;;
2041;SDS011;1026;51.460;7.252;2022-09-03T08:00:29;2.33;;;2.13;;
2041;SDS011;1026;51.460;7.252;2022-09-03T08:02:57;4.43;;;1.80;;
2041;SDS011;1026;51.460;7.252;2022-09-03T08:05:31;2.70;;;1.80;;
2041;SDS011;1026;51.460;7.252;2022-09-03T08:07:58;2.37;;;1.60;;
2041;SDS011;1026;51.460;7.252;2022-09-03T08:10:25;1.20;;;1.10;;
2041;SDS011;1026;51.460;7.252;2022-09-03T08:12:54;1.37;;;1.27;;
2041;SDS011;1026;51.460;7.252;2022-09-03T08:15:20;1.50;;;1.40;;
2041;SDS011;1026;51.460;7.252;2022-09-03T08:17:46;1.53;;;1.43;;
2041;SDS011;1026;51.460;7.252;2022-09-03T08:20:11;2.00;;;1.80;;
2041;SDS011;1026;51.460;7.252;2022-09-03T08:22:37;1.60;;;1.50;;
2041;SDS011;1026;51.460;7.252;2022-09-03T08:25:03;5.40;;;1.57;;
2041;SDS011;1026;51.460;7.252;2022-09-03T08:27:30;1.10;;;1.10;;
2041;SDS011;1026;51.460;7.252;2022-09-03T08:29:55;1.93;;;1.73;;
2041;SDS011;1026;51.460;7.252;2022-09-03T08:32:21;2.60;;;1.70;;
2041;SDS011;1026;51.460;7.252;2022-09-03T08:34:47;2.17;;;1.70;;
2041;SDS011;1026;51.460;7.252;2022-09-03T08:37:12;1.43;;;1.33;;
2041;SDS011;1026;51.460;7.252;2022-09-03T08:39:38;1.43;;;1.33;;
2041;SDS011;1026;51.460;7.252;2022-09-03T08:42:17;2.63;;;1.70;;
2041;SDS011;1026;51.460;7.252;2022-09-03T08:45:05;1.60;;;1.43;;
2041;SDS011;1026;51.460;7.252;2022-09-03T08:47:41;2.03;;;1.57;;
2041;SDS011;1026;51.460;7.252;2022-09-03T08:50:15;1.30;;;1.20;;
2041;SDS011;1026;51.460;7.252;2022-09-03T08:55:49;3.20;;;1.90;;
2041;SDS011;1026;51.460;7.252;2022-09-03T09:00:53;2.60;;;2.03;;
2041;SDS011;1026;51.460;7.252;2022-09-03T09:09:06;1.43;;;1.33;;
2041;SDS011;1026;51.460;7.252;2022-09-03T09:11:59;1.57;;;1.47;;
2041;SDS011;1026;51.460;7.252;2022-09-03T09:14:33;1.83;;;1.60;;
2041;SDS011;1026;51.460;7.252;2022-09-03T09:20:04;1.90;;;1.80;;
2041;SDS011;1026;51.460;7.252;2022-09-03T09:22:34;1.33;;;1.23;;
2041;SDS011;1026;51.460;7.252;2022-09-03T09:25:18;2.60;;;1.53;;
2041;SDS011;1026;51.460;7.252;2022-09-03T09:27:55;1.83;;;1.53;;
2041;SDS011;1026;51.460;7.252;2022-09-03T09:30:23;3.33;;;2.00;;
2041;SDS011;1026;51.460;7.252;2022-09-03T09:32:49;1.77;;;1.67;;
2041;SDS011;1026;51.460;7.252;2022-09-03T09:35:16;2.00;;;1.80;;
2041;SDS011;1026;51.460;7.252;2022-09-03T09:37:46;1.80;;;1.70;;
2041;SDS011;1026;51.460;7.252;2022-09-03T09:40:21;1.70;;;1.60;;
2041;SDS011;1026;51.460;7.252;2022-09-03T09:42:50;2.83;;;2.63;;
2041;SDS011;1026;51.460;7.252;2022-09-03T09:45:22;2.23;;;1.70;;
2041;SDS011;1026;51.460;7.252;2022-09-03T09:47:48;1.80;;;1.70;;
2041;SDS011;1026;51.460;7.252;2022-09-03T09:50:19;1.53;;;1.43;;
2041;SDS011;1026;51.460;7.252;2022-09-03T09:52:46;2.03;;;1.87;;
2041;SDS011;1026;51.460;7.252;2022-09-03T09:55:15;1.80;;;1.37;;
2041;SDS011;1026;51.460;7.252;2022-09-03T09:57:43;2.70;;;1.80;;
2041;SDS011;1026;51.460;7.252;2022-09-03T10:00:10;1.60;;;1.50;;
2041;SDS011;1026;51.460;7.252;2022-09-03T10:02:39;2.63;;;1.80;;
2041;SDS011;1026;51.460;7.252;2022-09-03T10:05:18;2.50;;;1.73;;
2041;SDS011;1026;51.460;7.252;2022-09-03T10:07:54;2.20;;;2.00;;
2041;SDS011;1026;51.460;7.252;2022-09-03T10:10:22;2.80;;;1.53;;
2041;SDS011;1026;51.460;7.252;2022-09-03T10:12:50;1.50;;;1.40;;
2041;SDS011;1026;51.460;7.252;2022-09-03T10:16:34;1.73;;;1.63;;
2041;SDS011;1026;51.460;7.252;2022-09-03T10:18:18;4.67;;;3.67;;
2041;SDS011;1026;51.460;7.252;2022-09-03T10:21:02;1.77;;;1.67;;
2041;SDS011;1026;51.460;7.252;2022-09-03T10:23:50;1.80;;;1.70;;
2041;SDS011;1026;51.460;7.252;2022-09-03T10:26:21;2.00;;;1.90;;
2041;SDS011;1026;51.460;7.252;2022-09-03T10:28:55;1.60;;;1.50;;
2041;SDS011;1026;51.460;7.252;2022-09-03T10:39:48;2.00;;;1.90;;
2041;SDS011;1026;51.460;7.252;2022-09-03T10:42:31;1.97;;;1.87;;
2041;SDS011;1026;51.460;7.252;2022-09-03T10:56:16;3.27;;;2.20;;
2041;SDS011;1026;51.460;7.252;2022-09-03T11:04:45;2.50;;;2.00;;
2041;SDS011;1026;51.460;7.252;2022-09-03T11:07:21;2.03;;;1.87;;
2041;SDS011;1026;51.460;7.252;2022-09-03T11:15:26;2.33;;;2.17;;
2041;SDS011;1026;51.460;7.252;2022-09-03T11:17:57;1.93;;;1.83;;
2041;SDS011;1026;51.460;7.252;2022-09-03T11:20:35;4.50;;;2.20;;
2041;SDS011;1026;51.460;7.252;2022-09-03T11:23:02;2.97;;;2.10;;
2041;SDS011;1026;51.460;7.252;2022-09-03T11:25:30;3.07;;;2.70;;
2041;SDS011;1026;51.460;7.252;2022-09-03T11:28:20;2.20;;;2.10;;
2041;SDS011;1026;51.460;7.252;2022-09-03T11:31:05;2.27;;;2.17;;
2041;SDS011;1026;51.460;7.252;2022-09-03T11:33:40;2.00;;;1.90;;
2041;SDS011;1026;51.460;7.252;2022-09-03T11:36:11;3.33;;;2.40;;
2041;SDS011;1026;51.460;7.252;2022-09-03T11:38:37;2.97;;;2.67;;
2041;SDS011;1026;51.460;7.252;2022-09-03T11:41:13;5.23;;;2.30;;
2041;SDS011;1026;51.460;7.252;2022-09-03T11:43:49;5.60;;;2.00;;
2041;SDS011;1026;51.460;7.252;2022-09-03T11:46:27;2.40;;;2.20;;
2041;SDS011;1026;51.460;7.252;2022-09-03T11:48:55;2.23;;;2.03;;
2041;SDS011;1026;51.460;7.252;2022-09-03T11:51:33;2.63;;;2.43;;
2041;SDS011;1026;51.460;7.252;2022-09-03T11:56:44;2.27;;;2.07;;
2041;SDS011;1026;51.460;7.252;2022-09-03T11:59:16;1.87;;;1.60;;
2041;SDS011;1026;51.460;7.252;2022-09-03T12:01:52;2.50;;;2.30;;
2041;SDS011;1026;51.460;7.252;2022-09-03T12:07:24;2.83;;;2.00;;
2041;SDS011;1026;51.460;7.252;2022-09-03T12:10:03;2.03;;;1.93;;
2041;SDS011;1026;51.460;7.252;2022-09-03T12:12:42;2.50;;;1.80;;
2041;SDS011;1026;51.460;7.252;2022-09-03T12:18:07;3.27;;;2.37;;
2041;SDS011;1026;51.460;7.252;2022-09-03T12:20:43;2.33;;;2.13;;
2041;SDS011;1026;51.460;7.252;2022-09-03T12:23:10;2.57;;;2.03;;
2041;SDS011;1026;51.460;7.252;2022-09-03T12:25:46;1.60;;;1.50;;
2041;SDS011;1026;51.460;7.252;2022-09-03T12:28:12;2.23;;;2.03;;
2041;SDS011;1026;51.460;7.252;2022-09-03T12:30:43;1.73;;;1.63;;
2041;SDS011;1026;51.460;7.252;2022-09-03T12:33:10;1.90;;;1.80;;
2041;SDS011;1026;51.460;7.252;2022-09-03T12:35:40;2.97;;;2.47;;
2041;SDS011;1026;51.460;7.252;2022-09-03T12:38:06;2.37;;;2.17;;
2041;SDS011;1026;51.460;7.252;2022-09-03T12:40:32;1.87;;;1.77;;
2041;SDS011;1026;51.460;7.252;2022-09-03T12:45:45;2.20;;;2.00;;
2041;SDS011;1026;51.460;7.252;2022-09-03T12:48:12;2.03;;;1.93;;
2041;SDS011;1026;51.460;7.252;2022-09-03T12:50:41;2.90;;;2.20;;
2041;SDS011;1026;51.460;7.252;2022-09-03T12:53:08;2.60;;;2.40;;
2041;SDS011;1026;51.460;7.252;2022-09-03T12:58:12;2.47;;;2.20;;
2041;SDS011;1026;51.460;7.252;2022-09-03T13:00:45;5.97;;;2.10;;
2041;SDS011;1026;51.460;7.252;2022-09-03T13:03:23;3.60;;;2.07;;
2041;SDS011;1026;51.460;7.252;2022-09-03T13:05:56;2.17;;;2.07;;
2041;SDS011;1026;51.460;7.252;2022-09-03T13:08:26;2.80;;;2.37;;
2041;SDS011;1026;51.460;7.252;2022-09-03T13:10:57;2.03;;;1.93;;
2041;SDS011;1026;51.460;7.252;2022-09-03T13:13:34;3.10;;;2.80;;
2041;SDS011;1026;51.460;7.252;2022-09-03T13:16:11;2.60;;;2.40;;
2041;SDS011;1026;51.460;7.252;2022-09-03T13:19:21;3.47;;;3.23;;
2041;SDS011;1026;51.460;7.252;2022-09-03T13:32:56;3.97;;;3.67;;
2041;SDS011;1026;51.460;7.252;2022-09-03T13:40:54;2.90;;;2.70;;
2041;SDS011;1026;51.460;7.252;2022-09-03T13:46:15;3.63;;;2.43;;
2041;SDS011;1026;51.460;7.252;2022-09-03T13:48:47;2.83;;;2.43;;
2041;SDS011;1026;51.460;7.252;2022-09-03T13:51:38;2.60;;;2.40;;
2041;SDS011;1026;51.460;7.252;2022-09-03T13:54:19;3.83;;;3.53;;
2041;SDS011;1026;51.460;7.252;2022-09-03T13:57:00;3.17;;;2.93;;
2041;SDS011;1026;51.460;7.252;2022-09-03T13:59:29;2.70;;;2.50;;
2041;SDS011;1026;51.460;7.252;2022-09-03T14:07:39;2.97;;;2.77;;
2041;SDS011;1026;51.460;7.252;2022-09-03T14:12:44;2.87;;;2.60;;
2041;SDS011;1026;51.460;7.252;2022-09-03T14:20:28;2.90;;;2.60;;
2041;SDS011;1026;51.460;7.252;2022-09-03T14:23:02;2.33;;;2.20;;
2041;SDS011;1026;51.460;7.252;2022-09-03T14:25:31;2.77;;;2.57;;
2041;SDS011;1026;51.460;7.252;2022-09-03T14:30:53;3.40;;;3.00;;
2041;SDS011;1026;51.460;7.252;2022-09-03T14:33:38;2.90;;;2.70;;
2041;SDS011;1026;51.460;7.252;2022-09-03T14:36:39;3.13;;;2.83;;
2041;SDS011;1026;51.460;7.252;2022-09-03T14:44:44;2.93;;;2.73;;
2041;SDS011;1026;51.460;7.252;2022-09-03T14:47:35;2.93;;;2.73;;
2041;SDS011;1026;51.460;7.252;2022-09-03T14:58:16;3.03;;;2.83;;
2041;SDS011;1026;51.460;7.252;2022-09-03T15:01:01;2.83;;;2.63;;
2041;SDS011;1026;51.460;7.252;2022-09-03T15:08:53;2.83;;;2.63;;
2041;SDS011;1026;51.460;7.252;2022-09-03T15:11:42;2.30;;;2.20;;
2041;SDS011;1026;51.460;7.252;2022-09-03T15:14:14;2.57;;;2.17;;
2041;SDS011;1026;51.460;7.252;2022-09-03T15:19:50;3.30;;;3.03;;
2041;SDS011;1026;51.460;7.252;2022-09-03T15:25:13;5.97;;;2.63;;
2041;SDS011;1026;51.460;7.252;2022-09-03T15:28:10;2.47;;;2.27;;
2041;SDS011;1026;51.460;7.252;2022-09-03T15:30:49;3.40;;;3.10;;
2041;SDS011;1026;51.460;7.252;2022-09-03T15:44:00;4.70;;;2.57;;
2041;SDS011;1026;51.460;7.252;2022-09-03T15:46:34;3.17;;;2.97;;
2041;SDS011;1026;51.460;7.252;2022-09-03T15:57:15;2.87;;;2.67;;
2041;SDS011;1026;51.460;7.252;2022-09-03T15:59:49;2.23;;;2.10;;
2041;SDS011;1026;51.460;7.252;2022-09-03T16:02:24;2.37;;;2.20;;
2041;SDS011;1026;51.460;7.252;2022-09-03T16:08:09;2.50;;;2.30;;
2041;SDS011;1026;51.460;7.252;2022-09-03T16:10:40;2.93;;;2.73;;
2041;SDS011;1026;51.460;7.252;2022-09-03T16:15:56;3.00;;;2.80;;
2041;SDS011;1026;51.460;7.252;2022-09-03T16:18:36;4.20;;;2.60;;
2041;SDS011;1026;51.460;7.252;2022-09-03T16:21:11;2.67;;;2.47;;
2041;SDS011;1026;51.460;7.252;2022-09-03T16:26:30;2.10;;;2.00;;
2041;SDS011;1026;51.460;7.252;2022-09-03T16:29:10;3.53;;;2.47;;
2041;SDS011;1026;51.460;7.252;2022-09-03T16:31:43;2.40;;;2.20;;
2041;SDS011;1026;51.460;7.252;2022-09-03T16:34:32;2.30;;;2.10;;
2041;SDS011;1026;51.460;7.252;2022-09-03T16:43:06;1.90;;;1.80;;
2041;SDS011;1026;51.460;7.252;2022-09-03T16:46:08;2.10;;;1.90;;
2041;SDS011;1026;51.460;7.252;2022-09-03T16:54:29;1.97;;;1.87;;
2041;SDS011;1026;51.460;7.252;2022-09-03T16:59:51;2.07;;;1.97;;
2041;SDS011;1026;51.460;7.252;2022-09-03T17:10:45;2.13;;;2.03;;
2041;SDS011;1026;51.460;7.252;2022-09-03T17:16:02;2.10;;;2.00;;
2041;SDS011;1026;51.460;7.252;2022-09-03T17:21:06;2.20;;;2.00;;
2041;SDS011;1026;51.460;7.252;2022-09-03T17:26:06;2.77;;;2.57;;
2041;SDS011;1026;51.460;7.252;2022-09-03T17:34:38;2.07;;;1.80;;
2041;SDS011;1026;51.460;7.252;2022-09-03T17:40:17;3.33;;;2.00;;
2041;SDS011;1026;51.460;7.252;2022-09-03T17:48:23;1.90;;;1.80;;
2041;SDS011;1026;51.460;7.252;2022-09-03T17:51:05;1.80;;;1.70;;
2041;SDS011;1026;51.460;7.252;2022-09-03T17:56:19;2.30;;;2.10;;
2041;SDS011;1026;51.460;7.252;2022-09-03T17:58:49;2.90;;;2.20;;
2041;SDS011;1026;51.460;7.252;2022-09-03T18:01:22;2.00;;;1.90;;
2041;SDS011;1026;51.460;7.252;2022-09-03T18:03:54;2.17;;;2.07;;
2041;SDS011;1026;51.460;7.252;2022-09-03T18:09:01;2.07;;;1.97;;
2041;SDS011;1026;51.460;7.252;2022-09-03T18:11:34;2.50;;;2.30;;
2041;SDS011;1026;51.460;7.252;2022-09-03T18:14:14;2.23;;;2.10;;
2041;SDS011;1026;51.460;7.252;2022-09-03T18:16:53;2.13;;;2.03;;
2041;SDS011;1026;51.460;7.252;2022-09-03T18:22:15;2.10;;;2.00;;
2041;SDS011;1026;51.460;7.252;2022-09-03T18:24:57;1.97;;;1.87;;
2041;SDS011;1026;51.460;7.252;2022-09-03T18:27:42;2.77;;;2.57;;
2041;SDS011;1026;51.460;7.252;2022-09-03T18:30:26;2.67;;;2.47;;
2041;SDS011;1026;51.460;7.252;2022-09-03T18:33:07;2.10;;;2.00;;
2041;SDS011;1026;51.460;7.252;2022-09-03T18:35:49;2.57;;;2.37;;
2041;SDS011;1026;51.460;7.252;2022-09-03T18:38:32;1.97;;;1.87;;
2041;SDS011;1026;51.460;7.252;2022-09-03T18:50:11;2.90;;;2.70;;
2041;SDS011;1026;51.460;7.252;2022-09-03T18:53:16;2.23;;;1.97;;
2041;SDS011;1026;51.460;7.252;2022-09-03T18:56:10;2.30;;;2.07;;
2041;SDS011;1026;51.460;7.252;2022-09-03T18:59:02;2.00;;;1.90;;
2041;SDS011;1026;51.460;7.252;2022-09-03T19:01:48;2.00;;;1.90;;
2041;SDS011;1026;51.460;7.252;2022-09-03T19:07:39;1.70;;;1.60;;
2041;SDS011;1026;51.460;7.252;2022-09-03T19:10:34;2.23;;;2.13;;
2041;SDS011;1026;51.460;7.252;2022-09-03T19:21:58;1.80;;;1.70;;
2041;SDS011;1026;51.460;7.252;2022-09-03T19:24:48;2.10;;;2.00;;
2041;SDS011;1026;51.460;7.252;2022-09-03T19:30:38;1.73;;;1.63;;
2041;SDS011;1026;51.460;7.252;2022-09-03T19:33:50;2.20;;;1.73;;
2041;SDS011;1026;51.460;7.252;2022-09-03T19:36:57;1.70;;;1.60;;
2041;SDS011;1026;51.460;7.252;2022-09-03T19:54:41;1.90;;;1.80;;
2041;SDS011;1026;51.460;7.252;2022-09-03T19:57:22;2.00;;;1.90;;
2041;SDS011;1026;51.460;7.252;2022-09-03T20:00:05;1.97;;;1.87;;
2041;SDS011;1026;51.460;7.252;2022-09-03T20:02:47;1.70;;;1.60;;
2041;SDS011;1026;51.460;7.252;2022-09-03T20:05:28;2.10;;;1.80;;
2041;SDS011;1026;51.460;7.252;2022-09-03T20:08:12;2.20;;;2.10;;
2041;SDS011;1026;51.460;7.252;2022-09-03T20:10:55;2.27;;;2.10;;
2041;SDS011;1026;51.460;7.252;2022-09-03T20:13:23;1.90;;;1.80;;
2041;SDS011;1026;51.460;7.252;2022-09-03T20:21:23;1.60;;;1.50;;
2041;SDS011;1026;51.460;7.252;2022-09-03T20:35:23;1.60;;;1.50;;
2041;SDS011;1026;51.460;7.252;2022-09-03T20:38:19;2.63;;;2.43;;
2041;SDS011;1026;51.460;7.252;2022-09-03T20:51:35;1.47;;;1.37;;
2041;SDS011;1026;51.460;7.252;2022-09-03T20:54:10;2.70;;;1.83;;
2041;SDS011;1026;51.460;7.252;2022-09-03T20:56:39;1.63;;;1.53;;
2041;SDS011;1026;51.460;7.252;2022-09-03T21:04:41;1.70;;;1.60;;
2041;SDS011;1026;51.460;7.252;2022-09-03T21:07:28;2.00;;;1.90;;
2041;SDS011;1026;51.460;7.252;2022-09-03T21:10:19;2.00;;;1.80;;
2041;SDS011;1026;51.460;7.252;2022-09-03T21:13:01;2.00;;;1.90;;
2041;SDS011;1026;51.460;7.252;2022-09-03T21:21:18;2.10;;;2.00;;